CST,Max TemperatureF,Mean TemperatureF,Min TemperatureF,Max Dew PointF,MeanDew PointF,Min DewpointF,Max Humidity, Mean Humidity, Min Humidity, Max Sea Level PressureIn, Mean Sea Level PressureIn, Min Sea Level PressureIn, Max VisibilityMiles, Mean VisibilityMiles, Min VisibilityMiles, Max Wind SpeedMPH, Mean Wind SpeedMPH, Max Gust SpeedMPH,PrecipitationIn, CloudCover, Events, WindDirDegrees
2004-1-1,70,64,57,64,60,51,97,88,78,30.35,30.26,30.19,10,9,3,10,5,,0.00,7,,151
2004-1-2,72,68,64,67,65,63,100,92,83,30.19,30.12,30.05,10,8,1,12,7,,0.00,7,Rain,168
2004-1-3,75,70,64,65,64,60,100,82,60,30.09,30.02,29.94,10,10,9,20,10,28,0.00,4,,180
2004-1-4,77,68,55,67,64,54,94,84,60,29.98,29.92,29.89,10,10,5,17,9,23,0.07,6,Rain-Thunderstorm,186
2004-1-5,53,45,37,51,39,27,96,79,67,30.44,30.21,30.01,10,10,9,15,12,22,0.01,8,Rain,360
2004-1-6,44,37,30,27,22,16,70,58,40,30.65,30.57,30.46,10,10,10,16,13,25,0.00,3,,25
2004-1-7,46,36,25,22,17,11,75,46,24,30.65,30.54,30.39,10,10,10,10,6,,0.00,4,,79
2004-1-8,52,46,41,52,44,27,100,91,53,30.39,30.20,30.10,10,5,2,15,8,,0.65,8,Rain,133
2004-1-9,50,46,41,48,40,37,96,85,76,30.38,30.27,30.14,10,10,9,17,10,18,0.00,7,,343
2004-1-10,51,42,32,36,31,28,96,72,48,30.51,30.45,30.39,10,9,5,12,6,,0.00,0,,12
2004-1-11,55,42,28,35,31,26,96,73,42,30.53,30.45,30.39,10,8,2,7,2,,0.00,0,,150
2004-1-12,62,48,33,49,42,31,100,80,56,30.45,30.39,30.35,10,9,5,8,3,,0.00,0,,128
2004-1-13,70,59,48,56,51,46,97,80,53,30.39,30.32,30.27,10,8,3,5,1,,0.00,3,,129
2004-1-14,70,60,51,58,54,50,100,90,63,30.25,30.16,30.09,10,6,0,9,1,,0.00,4,Fog-Thunderstorm,256
2004-1-15,66,58,50,54,49,40,100,84,45,30.19,30.10,30.07,10,4,0,8,1,,0.00,4,Fog-Thunderstorm,50
2004-1-16,66,58,50,54,47,40,88,69,50,30.09,29.98,29.87,10,10,9,16,8,,0.03,7,Rain,111
2004-1-17,63,58,54,63,58,53,100,95,84,29.86,29.70,29.58,10,6,0,22,9,29,1.38,7,Fog-Rain-Thunderstorm,144
2004-1-18,60,52,44,58,51,38,100,89,67,29.99,29.78,29.67,10,7,2,14,6,20,0.26,7,Rain,282
2004-1-19,46,40,32,39,30,24,82,68,46,30.22,30.13,29.99,10,10,10,12,9,,0.00,2,,5
2004-1-20,48,38,27,26,24,23,89,64,37,30.29,30.24,30.19,10,10,10,9,4,,0.00,0,,54
2004-1-21,55,42,28,32,27,24,89,62,31,30.36,30.29,30.25,10,10,10,8,3,,0.00,0,,334
2004-1-22,62,46,30,40,35,29,96,71,36,30.35,30.29,30.23,10,10,9,8,2,,0.00,0,,321
2004-1-23,66,50,35,49,41,35,100,73,39,30.34,30.24,30.14,10,7,2,10,3,,0.00,2,,200
2004-1-24,66,59,52,64,57,49,100,92,80,30.14,29.93,29.65,10,6,2,15,7,25,0.18,8,Rain,147
2004-1-25,73,65,57,64,57,43,100,82,42,29.73,29.67,29.62,10,8,1,24,12,38,1.51,4,Rain-Thunderstorm,204
2004-1-26,73,58,39,50,44,28,83,58,30,30.14,29.83,29.73,10,10,10,28,9,36,0.00,0,,266
2004-1-27,43,36,28,26,19,13,82,52,34,30.41,30.30,30.17,10,10,10,20,13,25,0.00,0,,320
2004-1-28,54,40,25,26,20,15,85,56,22,30.45,30.37,30.26,10,10,10,8,2,,0.00,0,,108
2004-1-29,53,42,30,50,40,27,100,83,51,30.25,30.07,29.95,10,7,2,14,6,,0.93,7,Rain,121
2004-1-30,51,44,37,51,44,35,100,91,79,30.06,29.99,29.94,10,8,2,13,9,17,0.35,8,Rain,32
2004-1-31,51,44,37,38,34,30,87,75,61,30.05,29.99,29.93,10,10,9,9,7,,0.00,6,,51